sensor_id;sensor_type;location;lat;lon;timestamp;pressure;altitude;pressure_sealevel;temperature;humidity
11605;BME280;5858;43.076;25.626;2022-10-19T00:01:03;99942.16;;;7.13;85.63
11605;BME280;5858;43.076;25.626;2022-10-19T00:03:30;99914.47;;;6.96;85.82
11605;BME280;5858;43.076;25.626;2022-10-19T00:05:58;99932.91;;;7.07;86.34
11605;BME280;5858;43.076;25.626;2022-10-19T00:08:25;99909.75;;;6.90;85.56
11605;BME280;5858;43.076;25.626;2022-10-19T00:10:53;99944.53;;;7.16;85.81
11605;BME280;5858;43.076;25.626;2022-10-19T00:13:20;99901.94;;;6.79;85.87
11605;BME280;5858;43.076;25.626;2022-10-19T00:15:47;99938.53;;;7.04;86.28
11605;BME280;5858;43.076;25.626;2022-10-19T00:18:18;99923.94;;;7.08;85.82
11605;BME280;5858;43.076;25.626;2022-10-19T00:20:45;99849.78;;;6.68;85.12
11605;BME280;5858;43.076;25.626;2022-10-19T00:23:12;99879.75;;;6.98;84.93
11605;BME280;5858;43.076;25.626;2022-10-19T00:25:39;99896.75;;;6.77;85.41
11605;BME280;5858;43.076;25.626;2022-10-19T00:28:06;99923.53;;;6.56;86.60
11605;BME280;5858;43.076;25.626;2022-10-19T00:30:35;99932.00;;;6.89;86.69
11605;BME280;5858;43.076;25.626;2022-10-19T00:33:02;99869.88;;;6.24;86.72
11605;BME280;5858;43.076;25.626;2022-10-19T00:35:31;99732.38;;;5.41;86.77
11605;BME280;5858;43.076;25.626;2022-10-19T00:37:58;99823.72;;;6.06;86.56
11605;BME280;5858;43.076;25.626;2022-10-19T00:40:25;99907.59;;;6.66;86.40
11605;BME280;5858;43.076;25.626;2022-10-19T00:42:53;99897.34;;;6.71;86.15
11605;BME280;5858;43.076;25.626;2022-10-19T00:45:21;99908.00;;;6.52;86.95
11605;BME280;5858;43.076;25.626;2022-10-19T00:47:49;99856.22;;;6.56;85.89
11605;BME280;5858;43.076;25.626;2022-10-19T00:50:16;99889.84;;;6.38;87.50
11605;BME280;5858;43.076;25.626;2022-10-19T00:52:45;99752.03;;;5.67;87.31
11605;BME280;5858;43.076;25.626;2022-10-19T00:55:12;99880.91;;;6.29;87.80
11605;BME280;5858;43.076;25.626;2022-10-19T00:57:39;99903.88;;;6.20;88.79
11605;BME280;5858;43.076;25.626;2022-10-19T01:00:08;99854.19;;;6.11;88.26
11605;BME280;5858;43.076;25.626;2022-10-19T01:02:35;99761.41;;;5.52;88.67
11605;BME280;5858;43.076;25.626;2022-10-19T01:05:03;99837.72;;;5.79;89.05
11605;BME280;5858;43.076;25.626;2022-10-19T01:07:30;99880.38;;;6.16;89.43
11605;BME280;5858;43.076;25.626;2022-10-19T01:10:00;99749.94;;;5.61;88.16
11605;BME280;5858;43.076;25.626;2022-10-19T01:13:02;99796.78;;;5.91;87.63
11605;BME280;5858;43.076;25.626;2022-10-19T01:15:41;99762.25;;;5.72;88.19
11605;BME280;5858;43.076;25.626;2022-10-19T01:18:18;99853.66;;;6.08;88.11
11605;BME280;5858;43.076;25.626;2022-10-19T01:21:18;99855.72;;;6.14;88.86
11605;BME280;5858;43.076;25.626;2022-10-19T01:24:10;99843.03;;;6.08;87.54
11605;BME280;5858;43.076;25.626;2022-10-19T01:32:41;99843.44;;;5.84;88.94
11605;BME280;5858;43.076;25.626;2022-10-19T01:35:18;99853.91;;;5.76;89.91
11605;BME280;5858;43.076;25.626;2022-10-19T01:37:49;99708.47;;;5.12;89.47
11605;BME280;5858;43.076;25.626;2022-10-19T01:40:23;99839.38;;;5.70;89.37
11605;BME280;5858;43.076;25.626;2022-10-19T01:43:00;99836.31;;;5.84;89.29
11605;BME280;5858;43.076;25.626;2022-10-19T01:45:31;99827.19;;;5.67;88.86
11605;BME280;5858;43.076;25.626;2022-10-19T01:48:08;99773.00;;;5.60;88.55
11605;BME280;5858;43.076;25.626;2022-10-19T01:50:41;99753.88;;;5.47;88.18
11605;BME280;5858;43.076;25.626;2022-10-19T01:53:11;99831.97;;;5.74;89.50
11605;BME280;5858;43.076;25.626;2022-10-19T01:55:41;99831.94;;;5.64;89.60
11605;BME280;5858;43.076;25.626;2022-10-19T01:58:12;99839.22;;;5.52;91.13
11605;BME280;5858;43.076;25.626;2022-10-19T02:00:42;99775.25;;;5.36;90.04
11605;BME280;5858;43.076;25.626;2022-10-19T02:03:12;99646.88;;;4.60;89.82
11605;BME280;5858;43.076;25.626;2022-10-19T02:05:43;99766.31;;;5.27;89.87
11605;BME280;5858;43.076;25.626;2022-10-19T02:08:12;99829.75;;;5.79;89.14
11605;BME280;5858;43.076;25.626;2022-10-19T02:10:42;99725.09;;;5.23;88.52
11605;BME280;5858;43.076;25.626;2022-10-19T02:13:13;99820.09;;;5.87;88.13
11605;BME280;5858;43.076;25.626;2022-10-19T02:15:43;99816.19;;;5.91;87.77
11605;BME280;5858;43.076;25.626;2022-10-19T02:18:16;99753.72;;;5.39;87.98
11605;BME280;5858;43.076;25.626;2022-10-19T02:20:45;99740.56;;;4.99;89.09
11605;BME280;5858;43.076;25.626;2022-10-19T02:23:15;99699.84;;;4.50;90.63
11605;BME280;5858;43.076;25.626;2022-10-19T02:25:44;99701.56;;;4.70;90.09
11605;BME280;5858;43.076;25.626;2022-10-19T02:28:11;99710.72;;;4.47;90.10
11605;BME280;5858;43.076;25.626;2022-10-19T02:30:38;99646.44;;;4.05;90.63
11605;BME280;5858;43.076;25.626;2022-10-19T02:33:07;99713.81;;;4.52;90.83
11605;BME280;5858;43.076;25.626;2022-10-19T02:35:35;99755.50;;;5.10;89.52
11605;BME280;5858;43.076;25.626;2022-10-19T02:38:02;99750.59;;;4.86;90.06
11605;BME280;5858;43.076;25.626;2022-10-19T02:40:33;99810.16;;;5.31;90.60
11605;BME280;5858;43.076;25.626;2022-10-19T02:43:04;99776.56;;;5.01;90.26
11605;BME280;5858;43.076;25.626;2022-10-19T02:45:39;99752.00;;;4.99;89.38
11605;BME280;5858;43.076;25.626;2022-10-19T02:48:15;99730.06;;;4.78;89.79
11605;BME280;5858;43.076;25.626;2022-10-19T02:50:45;99735.81;;;4.93;89.00
11605;BME280;5858;43.076;25.626;2022-10-19T02:53:13;99732.38;;;4.62;89.70
11605;BME280;5858;43.076;25.626;2022-10-19T02:55:41;99810.75;;;4.95;90.63
11605;BME280;5858;43.076;25.626;2022-10-19T02:58:08;99770.16;;;4.94;89.83
11605;BME280;5858;43.076;25.626;2022-10-19T03:00:35;99813.56;;;5.03;90.72
11605;BME280;5858;43.076;25.626;2022-10-19T03:03:02;99690.38;;;4.17;90.60
11605;BME280;5858;43.076;25.626;2022-10-19T03:05:29;99850.69;;;5.03;90.22
11605;BME280;5858;43.076;25.626;2022-10-19T03:07:58;99827.59;;;4.74;92.01
11605;BME280;5858;43.076;25.626;2022-10-19T03:10:25;99814.22;;;4.86;91.73
11605;BME280;5858;43.076;25.626;2022-10-19T03:12:52;99810.56;;;4.77;91.63
11605;BME280;5858;43.076;25.626;2022-10-19T03:15:19;99775.88;;;4.59;91.69
11605;BME280;5858;43.076;25.626;2022-10-19T03:17:51;99703.16;;;4.02;91.42
11605;BME280;5858;43.076;25.626;2022-10-19T03:20:19;99818.28;;;4.90;91.58
11605;BME280;5858;43.076;25.626;2022-10-19T03:22:46;99748.78;;;4.16;91.64
11605;BME280;5858;43.076;25.626;2022-10-19T03:25:14;99694.72;;;3.88;92.47
11605;BME280;5858;43.076;25.626;2022-10-19T03:27:41;99805.75;;;4.61;92.28
11605;BME280;5858;43.076;25.626;2022-10-19T03:30:09;99731.88;;;4.07;92.87
11605;BME280;5858;43.076;25.626;2022-10-19T03:32:36;99694.47;;;3.70;93.48
11605;BME280;5858;43.076;25.626;2022-10-19T03:35:04;99606.88;;;3.22;93.95
11605;BME280;5858;43.076;25.626;2022-10-19T03:37:32;99755.31;;;4.11;93.54
11605;BME280;5858;43.076;25.626;2022-10-19T03:39:59;99800.69;;;4.49;93.17
11605;BME280;5858;43.076;25.626;2022-10-19T03:42:28;99810.06;;;4.32;93.09
11605;BME280;5858;43.076;25.626;2022-10-19T03:44:55;99755.03;;;4.15;93.05
11605;BME280;5858;43.076;25.626;2022-10-19T03:47:23;99735.06;;;4.01;92.58
11605;BME280;5858;43.076;25.626;2022-10-19T03:49:50;99605.97;;;3.11;93.45
11605;BME280;5858;43.076;25.626;2022-10-19T03:52:17;99736.63;;;3.83;93.61
11605;BME280;5858;43.076;25.626;2022-10-19T03:54:45;99598.75;;;2.93;94.23
11605;BME280;5858;43.076;25.626;2022-10-19T03:57:14;99741.97;;;3.92;93.23
11605;BME280;5858;43.076;25.626;2022-10-19T03:59:43;99789.38;;;3.95;94.31
11605;BME280;5858;43.076;25.626;2022-10-19T04:02:10;99794.06;;;4.13;94.85
11605;BME280;5858;43.076;25.626;2022-10-19T04:04:37;99696.81;;;3.42;95.25
11605;BME280;5858;43.076;25.626;2022-10-19T04:07:04;99780.50;;;4.06;95.54
11605;BME280;5858;43.076;25.626;2022-10-19T04:09:31;99791.16;;;3.95;95.61
11605;BME280;5858;43.076;25.626;2022-10-19T04:12:00;99767.97;;;3.66;96.60
11605;BME280;5858;43.076;25.626;2022-10-19T04:14:30;99791.81;;;3.87;96.82
11605;BME280;5858;43.076;25.626;2022-10-19T04:16:59;99718.94;;;3.62;96.35
11605;BME280;5858;43.076;25.626;2022-10-19T04:19:26;99718.09;;;3.62;96.14
11605;BME280;5858;43.076;25.626;2022-10-19T04:21:53;99798.56;;;4.22;94.99
11605;BME280;5858;43.076;25.626;2022-10-19T04:24:21;99784.88;;;4.17;94.05
11605;BME280;5858;43.076;25.626;2022-10-19T04:26:50;99714.72;;;3.60;94.59
11605;BME280;5858;43.076;25.626;2022-10-19T04:29:18;99627.31;;;2.99;94.11
11605;BME280;5858;43.076;25.626;2022-10-19T04:31:48;99791.16;;;4.16;94.60
11605;BME280;5858;43.076;25.626;2022-10-19T04:34:17;99681.63;;;3.44;94.38
11605;BME280;5858;43.076;25.626;2022-10-19T04:36:46;99786.38;;;4.09;94.74
11605;BME280;5858;43.076;25.626;2022-10-19T04:39:13;99787.13;;;4.21;94.66
11605;BME280;5858;43.076;25.626;2022-10-19T04:41:40;99777.84;;;4.27;93.98
11605;BME280;5858;43.076;25.626;2022-10-19T04:44:10;99671.25;;;3.53;93.09
11605;BME280;5858;43.076;25.626;2022-10-19T04:46:37;99680.84;;;3.74;92.96
11605;BME280;5858;43.076;25.626;2022-10-19T04:49:05;99749.44;;;4.08;92.12
11605;BME280;5858;43.076;25.626;2022-10-19T04:51:34;99798.19;;;4.26;93.25
11605;BME280;5858;43.076;25.626;2022-10-19T04:54:02;99667.00;;;3.40;94.17
11605;BME280;5858;43.076;25.626;2022-10-19T04:56:29;99694.53;;;3.79;92.78
11605;BME280;5858;43.076;25.626;2022-10-19T04:58:58;99699.75;;;3.91;91.52
11605;BME280;5858;43.076;25.626;2022-10-19T05:01:33;99710.47;;;3.68;93.91
11605;BME280;5858;43.076;25.626;2022-10-19T05:04:05;99770.66;;;4.18;94.36
11605;BME280;5858;43.076;25.626;2022-10-19T05:06:34;99684.25;;;3.65;94.56
11605;BME280;5858;43.076;25.626;2022-10-19T05:09:01;99790.19;;;4.17;94.57
11605;BME280;5858;43.076;25.626;2022-10-19T05:11:28;99780.28;;;4.19;94.83
11605;BME280;5858;43.076;25.626;2022-10-19T05:13:55;99749.00;;;4.03;94.61
11605;BME280;5858;43.076;25.626;2022-10-19T05:16:25;99718.47;;;3.99;94.70
11605;BME280;5858;43.076;25.626;2022-10-19T05:18:55;99718.50;;;4.08;92.90
11605;BME280;5858;43.076;25.626;2022-10-19T05:21:24;99794.59;;;4.67;93.50
11605;BME280;5858;43.076;25.626;2022-10-19T05:24:10;99704.06;;;4.22;92.25
11605;BME280;5858;43.076;25.626;2022-10-19T05:26:38;99801.00;;;4.95;91.45
11605;BME280;5858;43.076;25.626;2022-10-19T05:29:05;99698.47;;;4.56;90.28
11605;BME280;5858;43.076;25.626;2022-10-19T05:31:33;99764.06;;;5.23;90.58
11605;BME280;5858;43.076;25.626;2022-10-19T05:34:04;99711.53;;;5.17;89.57
11605;BME280;5858;43.076;25.626;2022-10-19T05:36:32;99741.38;;;6.15;87.04
11605;BME280;5858;43.076;25.626;2022-10-19T05:39:04;99774.41;;;7.05;82.46
11605;BME280;5858;43.076;25.626;2022-10-19T05:41:32;99756.09;;;7.55;79.38
11605;BME280;5858;43.076;25.626;2022-10-19T05:44:00;99723.13;;;8.17;76.13
11605;BME280;5858;43.076;25.626;2022-10-19T05:46:29;99709.19;;;8.58;74.31
11605;BME280;5858;43.076;25.626;2022-10-19T05:48:59;99784.03;;;9.49;72.73
11605;BME280;5858;43.076;25.626;2022-10-19T05:51:26;99686.66;;;9.10;70.48
11605;BME280;5858;43.076;25.626;2022-10-19T05:53:56;99756.81;;;9.61;70.60
11605;BME280;5858;43.076;25.626;2022-10-19T05:56:28;99689.16;;;9.12;69.49
11605;BME280;5858;43.076;25.626;2022-10-19T05:58:57;99705.84;;;9.14;70.05
11605;BME280;5858;43.076;25.626;2022-10-19T06:01:52;99801.00;;;9.39;70.82
11605;BME280;5858;43.076;25.626;2022-10-19T06:04:54;99598.38;;;7.87;71.78
11605;BME280;5858;43.076;25.626;2022-10-19T06:07:32;99772.50;;;8.90;72.73
11605;BME280;5858;43.076;25.626;2022-10-19T06:10:02;99767.22;;;8.64;73.91
11605;BME280;5858;43.076;25.626;2022-10-19T06:12:33;99729.66;;;8.23;74.60
11605;BME280;5858;43.076;25.626;2022-10-19T06:15:19;99778.22;;;8.35;75.93
11605;BME280;5858;43.076;25.626;2022-10-19T06:18:04;99699.66;;;7.95;76.88
11605;BME280;5858;43.076;25.626;2022-10-19T06:20:35;99738.47;;;7.98;78.50
11605;BME280;5858;43.076;25.626;2022-10-19T06:23:02;99715.78;;;7.94;77.88
11605;BME280;5858;43.076;25.626;2022-10-19T06:25:30;99734.66;;;8.00;77.96
11605;BME280;5858;43.076;25.626;2022-10-19T06:27:59;99764.91;;;8.35;78.43
11605;BME280;5858;43.076;25.626;2022-10-19T06:30:26;99766.41;;;8.37;78.25
11605;BME280;5858;43.076;25.626;2022-10-19T06:32:53;99748.06;;;8.34;78.55
11605;BME280;5858;43.076;25.626;2022-10-19T06:38:40;99775.72;;;8.59;77.21
11605;BME280;5858;43.076;25.626;2022-10-19T06:41:28;99553.03;;;7.01;77.81
11605;BME280;5858;43.076;25.626;2022-10-19T06:47:38;99597.28;;;7.46;78.09
11605;BME280;5858;43.076;25.626;2022-10-19T06:50:19;99559.22;;;7.53;77.48
11605;BME280;5858;43.076;25.626;2022-10-19T06:53:12;99718.81;;;8.50;77.54
11605;BME280;5858;43.076;25.626;2022-10-19T06:56:12;99548.84;;;7.42;77.68
11605;BME280;5858;43.076;25.626;2022-10-19T06:59:06;99676.63;;;8.12;78.37
11605;BME280;5858;43.076;25.626;2022-10-19T07:02:08;99588.31;;;7.73;77.62
11605;BME280;5858;43.076;25.626;2022-10-19T07:04:47;99670.44;;;8.37;77.75
11605;BME280;5858;43.076;25.626;2022-10-19T07:10:19;99714.28;;;8.93;76.65
11605;BME280;5858;43.076;25.626;2022-10-19T07:13:05;99547.19;;;8.17;75.83
11605;BME280;5858;43.076;25.626;2022-10-19T07:15:33;99559.75;;;8.33;75.77
11605;BME280;5858;43.076;25.626;2022-10-19T07:21:12;99705.06;;;9.54;74.67
11605;BME280;5858;43.076;25.626;2022-10-19T07:23:41;99714.25;;;9.60;73.99
11605;BME280;5858;43.076;25.626;2022-10-19T07:26:12;99732.91;;;9.84;73.88
11605;BME280;5858;43.076;25.626;2022-10-19T07:28:41;99582.56;;;9.10;73.33
11605;BME280;5858;43.076;25.626;2022-10-19T07:31:18;99556.88;;;9.09;72.60
11605;BME280;5858;43.076;25.626;2022-10-19T07:33:46;99642.59;;;9.71;72.05
11605;BME280;5858;43.076;25.626;2022-10-19T07:36:14;99735.56;;;10.41;72.66
11605;BME280;5858;43.076;25.626;2022-10-19T07:38:41;99700.09;;;10.39;72.71
11605;BME280;5858;43.076;25.626;2022-10-19T07:41:11;99620.34;;;9.95;71.78
11605;BME280;5858;43.076;25.626;2022-10-19T07:43:41;99687.69;;;10.54;71.13
11605;BME280;5858;43.076;25.626;2022-10-19T07:46:11;99698.69;;;10.59;71.18
11605;BME280;5858;43.076;25.626;2022-10-19T07:48:42;99711.94;;;10.84;71.32
11605;BME280;5858;43.076;25.626;2022-10-19T07:51:11;99708.72;;;10.96;70.65
11605;BME280;5858;43.076;25.626;2022-10-19T07:53:42;99662.84;;;10.68;70.54
11605;BME280;5858;43.076;25.626;2022-10-19T07:56:11;99664.03;;;10.97;70.33
11605;BME280;5858;43.076;25.626;2022-10-19T07:58:39;99543.44;;;10.36;69.95
11605;BME280;5858;43.076;25.626;2022-10-19T08:01:08;99565.66;;;10.68;69.97
11605;BME280;5858;43.076;25.626;2022-10-19T08:03:36;99671.00;;;11.52;69.33
11605;BME280;5858;43.076;25.626;2022-10-19T08:06:05;99517.72;;;10.81;69.98
11605;BME280;5858;43.076;25.626;2022-10-19T08:08:32;99653.28;;;11.88;69.67
11605;BME280;5858;43.076;25.626;2022-10-19T08:11:07;99633.28;;;11.91;69.55
11605;BME280;5858;43.076;25.626;2022-10-19T08:13:34;99609.34;;;12.04;67.72
11605;BME280;5858;43.076;25.626;2022-10-19T08:16:01;99598.13;;;12.15;66.37
11605;BME280;5858;43.076;25.626;2022-10-19T08:18:28;99662.56;;;12.66;65.69
11605;BME280;5858;43.076;25.626;2022-10-19T08:20:56;99565.09;;;12.29;64.94
11605;BME280;5858;43.076;25.626;2022-10-19T08:23:23;99664.69;;;13.07;63.86
11605;BME280;5858;43.076;25.626;2022-10-19T08:25:56;99614.03;;;12.82;62.88
11605;BME280;5858;43.076;25.626;2022-10-19T08:28:26;99602.84;;;13.00;62.57
11605;BME280;5858;43.076;25.626;2022-10-19T08:30:53;99567.34;;;12.83;61.42
11605;BME280;5858;43.076;25.626;2022-10-19T08:33:23;99555.97;;;12.81;62.02
11605;BME280;5858;43.076;25.626;2022-10-19T08:35:52;99543.81;;;13.07;60.57
11605;BME280;5858;43.076;25.626;2022-10-19T08:38:24;99601.00;;;13.43;60.38
11605;BME280;5858;43.076;25.626;2022-10-19T08:40:54;99575.53;;;13.39;60.88
11605;BME280;5858;43.076;25.626;2022-10-19T08:46:18;99529.56;;;13.62;57.83
11605;BME280;5858;43.076;25.626;2022-10-19T08:48:51;99593.69;;;14.34;58.13
11605;BME280;5858;43.076;25.626;2022-10-19T08:51:20;99491.63;;;13.85;59.11
11605;BME280;5858;43.076;25.626;2022-10-19T08:53:52;99641.38;;;14.95;56.42
11605;BME280;5858;43.076;25.626;2022-10-19T08:56:27;99617.13;;;15.01;55.96
11605;BME280;5858;43.076;25.626;2022-10-19T08:59:08;99537.88;;;14.63;54.50
11605;BME280;5858;43.076;25.626;2022-10-19T09:01:49;99560.31;;;14.76;53.76
11605;BME280;5858;43.076;25.626;2022-10-19T09:04:23;99561.56;;;14.94;53.29
11605;BME280;5858;43.076;25.626;2022-10-19T09:07:02;99525.72;;;14.80;52.13
11605;BME280;5858;43.076;25.626;2022-10-19T09:09:48;99604.13;;;15.44;51.03
11605;BME280;5858;43.076;25.626;2022-10-19T09:12:39;99586.88;;;15.12;49.20
11605;BME280;5858;43.076;25.626;2022-10-19T09:15:11;99581.50;;;15.46;49.40
11605;BME280;5858;43.076;25.626;2022-10-19T09:17:43;99470.78;;;14.81;49.72
11605;BME280;5858;43.076;25.626;2022-10-19T09:20:21;99453.59;;;14.89;48.07
11605;BME280;5858;43.076;25.626;2022-10-19T09:23:04;99599.50;;;16.11;48.97
11605;BME280;5858;43.076;25.626;2022-10-19T09:25:38;99517.22;;;15.69;47.78
11605;BME280;5858;43.076;25.626;2022-10-19T09:28:22;99498.66;;;15.92;47.04
11605;BME280;5858;43.076;25.626;2022-10-19T09:30:54;99470.81;;;15.98;46.86
11605;BME280;5858;43.076;25.626;2022-10-19T09:33:29;99585.41;;;16.60;45.27
11605;BME280;5858;43.076;25.626;2022-10-19T09:36:13;99509.38;;;16.05;44.92
11605;BME280;5858;43.076;25.626;2022-10-19T09:38:54;99591.19;;;16.71;44.14
11605;BME280;5858;43.076;25.626;2022-10-19T09:41:57;99474.91;;;16.14;44.46
11605;BME280;5858;43.076;25.626;2022-10-19T09:44:45;99421.13;;;16.06;43.57
11605;BME280;5858;43.076;25.626;2022-10-19T09:48:19;99576.00;;;17.08;43.40
11605;BME280;5858;43.076;25.626;2022-10-19T09:50:44;99560.84;;;17.07;42.09
11605;BME280;5858;43.076;25.626;2022-10-19T09:53:17;99583.03;;;17.15;41.76
11605;BME280;5858;43.076;25.626;2022-10-19T09:55:47;99545.06;;;17.04;42.54
11605;BME280;5858;43.076;25.626;2022-10-19T09:58:18;99565.09;;;17.21;41.63
11605;BME280;5858;43.076;25.626;2022-10-19T10:00:47;99565.63;;;17.29;41.85
11605;BME280;5858;43.076;25.626;2022-10-19T10:03:25;99481.97;;;16.85;41.47
11605;BME280;5858;43.076;25.626;2022-10-19T10:05:55;99596.00;;;17.31;40.04
11605;BME280;5858;43.076;25.626;2022-10-19T10:08:26;99408.97;;;16.28;40.05
11605;BME280;5858;43.076;25.626;2022-10-19T10:11:04;99583.56;;;17.24;40.48
11605;BME280;5858;43.076;25.626;2022-10-19T10:13:36;99493.97;;;16.89;39.94
11605;BME280;5858;43.076;25.626;2022-10-19T10:16:13;99382.97;;;16.34;39.71
11605;BME280;5858;43.076;25.626;2022-10-19T10:18:50;99403.59;;;16.53;38.80
11605;BME280;5858;43.076;25.626;2022-10-19T10:21:25;99548.91;;;17.64;39.61
11605;BME280;5858;43.076;25.626;2022-10-19T10:27:38;99542.28;;;17.60;37.18
11605;BME280;5858;43.076;25.626;2022-10-19T10:30:15;99422.81;;;16.95;37.42
11605;BME280;5858;43.076;25.626;2022-10-19T10:32:57;99536.84;;;18.03;36.91
11605;BME280;5858;43.076;25.626;2022-10-19T10:35:29;99473.78;;;17.59;36.49
11605;BME280;5858;43.076;25.626;2022-10-19T10:38:20;99499.59;;;17.80;36.75
11605;BME280;5858;43.076;25.626;2022-10-19T10:40:50;99417.84;;;17.35;36.10
11605;BME280;5858;43.076;25.626;2022-10-19T10:43:28;99424.38;;;17.46;36.00
11605;BME280;5858;43.076;25.626;2022-10-19T10:46:00;99459.28;;;17.90;36.19
11605;BME280;5858;43.076;25.626;2022-10-19T10:48:31;99465.84;;;18.01;35.36
11605;BME280;5858;43.076;25.626;2022-10-19T10:51:17;99456.81;;;18.07;35.82
11605;BME280;5858;43.076;25.626;2022-10-19T10:54:16;99487.88;;;18.35;35.66
11605;BME280;5858;43.076;25.626;2022-10-19T10:57:04;99519.78;;;18.51;35.96
11605;BME280;5858;43.076;25.626;2022-10-19T10:59:40;99514.59;;;18.79;33.72
11605;BME280;5858;43.076;25.626;2022-10-19T11:02:16;99425.44;;;18.30;34.19
11605;BME280;5858;43.076;25.626;2022-10-19T11:04:48;99493.84;;;18.73;33.93
11605;BME280;5858;43.076;25.626;2022-10-19T11:07:20;99489.31;;;19.09;32.88
11605;BME280;5858;43.076;25.626;2022-10-19T11:09:52;99458.88;;;18.95;32.77
11605;BME280;5858;43.076;25.626;2022-10-19T11:12:33;99403.31;;;18.63;32.20
11605;BME280;5858;43.076;25.626;2022-10-19T11:15:11;99337.47;;;18.32;32.30
11605;BME280;5858;43.076;25.626;2022-10-19T11:17:50;99410.03;;;18.83;32.82
11605;BME280;5858;43.076;25.626;2022-10-19T11:20:21;99474.22;;;19.36;32.28
11605;BME280;5858;43.076;25.626;2022-10-19T11:22:54;99484.16;;;19.54;31.43
11605;BME280;5858;43.076;25.626;2022-10-19T11:25:32;99395.91;;;19.05;31.39
11605;BME280;5858;43.076;25.626;2022-10-19T11:28:21;99450.59;;;19.37;32.34
11605;BME280;5858;43.076;25.626;2022-10-19T11:30:58;99344.84;;;18.78;32.00
11605;BME280;5858;43.076;25.626;2022-10-19T11:33:43;99443.06;;;19.39;30.67
11605;BME280;5858;43.076;25.626;2022-10-19T11:36:29;99457.03;;;19.54;31.07
11605;BME280;5858;43.076;25.626;2022-10-19T11:39:09;99463.38;;;19.60;31.34
11605;BME280;5858;43.076;25.626;2022-10-19T11:41:49;99415.25;;;19.55;30.45
11605;BME280;5858;43.076;25.626;2022-10-19T11:44:28;99416.53;;;19.53;30.26
11605;BME280;5858;43.076;25.626;2022-10-19T11:47:16;99443.84;;;19.86;30.28
11605;BME280;5858;43.076;25.626;2022-10-19T11:49:54;99445.97;;;19.96;31.40
11605;BME280;5858;43.076;25.626;2022-10-19T11:52:30;99429.66;;;19.84;29.92
11605;BME280;5858;43.076;25.626;2022-10-19T11:55:06;99446.50;;;20.09;29.25
11605;BME280;5858;43.076;25.626;2022-10-19T11:57:48;99381.31;;;19.69;29.41
11605;BME280;5858;43.076;25.626;2022-10-19T12:00:21;99406.44;;;19.76;29.20
11605;BME280;5858;43.076;25.626;2022-10-19T12:03:17;99414.69;;;19.81;29.96
11605;BME280;5858;43.076;25.626;2022-10-19T12:06:01;99278.00;;;18.96;29.23
11605;BME280;5858;43.076;25.626;2022-10-19T12:08:45;99401.25;;;19.87;29.10
11605;BME280;5858;43.076;25.626;2022-10-19T12:11:29;99409.25;;;19.93;29.09
11605;BME280;5858;43.076;25.626;2022-10-19T12:14:07;99343.94;;;19.48;30.08
11605;BME280;5858;43.076;25.626;2022-10-19T12:16:43;99345.13;;;19.52;29.41
11605;BME280;5858;43.076;25.626;2022-10-19T12:19:17;99396.34;;;20.00;29.01
11605;BME280;5858;43.076;25.626;2022-10-19T12:21:49;99413.69;;;20.28;28.90
11605;BME280;5858;43.076;25.626;2022-10-19T12:24:19;99342.53;;;19.86;28.59
11605;BME280;5858;43.076;25.626;2022-10-19T12:26:49;99378.91;;;19.85;28.63
11605;BME280;5858;43.076;25.626;2022-10-19T12:29:20;99299.03;;;19.29;28.56
11605;BME280;5858;43.076;25.626;2022-10-19T12:31:49;99398.03;;;19.90;28.97
11605;BME280;5858;43.076;25.626;2022-10-19T12:34:28;99292.03;;;19.44;29.72
11605;BME280;5858;43.076;25.626;2022-10-19T12:37:01;99282.56;;;19.18;29.21
11605;BME280;5858;43.076;25.626;2022-10-19T12:39:38;99237.06;;;19.09;29.23
11605;BME280;5858;43.076;25.626;2022-10-19T12:42:18;99397.09;;;20.12;29.65
11605;BME280;5858;43.076;25.626;2022-10-19T12:45:27;99318.72;;;19.76;29.93
11605;BME280;5858;43.076;25.626;2022-10-19T12:48:20;99400.00;;;20.23;30.13
11605;BME280;5858;43.076;25.626;2022-10-19T12:51:05;99393.75;;;20.22;30.22
11605;BME280;5858;43.076;25.626;2022-10-19T12:53:34;99369.41;;;19.99;30.18
11605;BME280;5858;43.076;25.626;2022-10-19T12:56:05;99385.91;;;20.09;30.56
11605;BME280;5858;43.076;25.626;2022-10-19T12:58:37;99303.13;;;19.55;30.57
11605;BME280;5858;43.076;25.626;2022-10-19T13:01:08;99304.53;;;19.57;31.06
11605;BME280;5858;43.076;25.626;2022-10-19T13:03:37;99373.34;;;19.91;30.63
11605;BME280;5858;43.076;25.626;2022-10-19T13:06:30;99319.16;;;19.56;30.91
11605;BME280;5858;43.076;25.626;2022-10-19T13:09:00;99351.50;;;19.86;30.89
11605;BME280;5858;43.076;25.626;2022-10-19T13:11:28;99327.22;;;19.79;30.99
11605;BME280;5858;43.076;25.626;2022-10-19T13:13:58;99301.19;;;19.67;30.52
11605;BME280;5858;43.076;25.626;2022-10-19T13:16:57;99260.94;;;19.24;31.05
11605;BME280;5858;43.076;25.626;2022-10-19T13:19:25;99235.78;;;19.00;31.42
11605;BME280;5858;43.076;25.626;2022-10-19T13:25:20;99352.19;;;19.65;31.45
11605;BME280;5858;43.076;25.626;2022-10-19T13:27:48;99359.44;;;19.76;31.53
11605;BME280;5858;43.076;25.626;2022-10-19T13:33:52;99356.72;;;19.88;31.42
11605;BME280;5858;43.076;25.626;2022-10-19T13:36:22;99325.94;;;19.70;31.78
11605;BME280;5858;43.076;25.626;2022-10-19T13:39:08;99280.84;;;19.41;31.33
11605;BME280;5858;43.076;25.626;2022-10-19T13:41:51;99296.50;;;19.50;31.31
11605;BME280;5858;43.076;25.626;2022-10-19T13:44:32;99238.75;;;19.27;31.56
11605;BME280;5858;43.076;25.626;2022-10-19T13:47:28;99344.41;;;19.85;31.18
11605;BME280;5858;43.076;25.626;2022-10-19T13:50:28;99342.06;;;19.89;31.31
11605;BME280;5858;43.076;25.626;2022-10-19T13:53:22;99269.38;;;19.39;30.90
11605;BME280;5858;43.076;25.626;2022-10-19T13:56:03;99279.88;;;19.47;31.43
11605;BME280;5858;43.076;25.626;2022-10-19T13:59:12;99180.09;;;18.69;31.31
11605;BME280;5858;43.076;25.626;2022-10-19T14:05:13;99205.75;;;18.78;31.48
11605;BME280;5858;43.076;25.626;2022-10-19T14:08:07;99295.09;;;19.48;31.96
11605;BME280;5858;43.076;25.626;2022-10-19T14:10:36;99294.56;;;19.23;31.90
11605;BME280;5858;43.076;25.626;2022-10-19T14:13:10;99234.16;;;18.75;32.32
11605;BME280;5858;43.076;25.626;2022-10-19T14:15:52;99147.84;;;18.20;32.15